Wetterdaten: aktuell Dienstag, 05.12.2023 20:30
Datum Zeit Temperatur Luftfeuchte Luftdruck Regen Zeit Sonne Solar Taupunkt Windchill Windben
05.12.2023 20:30 2,0 C 87 % 1009,1 hPa 0,0 l/m 0 min 0 W/m 0,1 C 2,0 C 0,0 km/h (0 Bft)
05.12.2023 19:30 1,5 C 86 % 1008,8 hPa 0,0 l/m 0 min 0 W/m -0,6 C 1,5 C 4,8 km/h (1 Bft)
05.12.2023 18:25 1,9 C 84 % 1008,3 hPa 0,0 l/m 0 min 0 W/m -0,5 C 1,9 C 1,6 km/h (1 Bft)
05.12.2023 17:25 2,7 C 82 % 1008,2 hPa 0,0 l/m 0 min 0 W/m -0,1 C 2,7 C 0,0 km/h (0 Bft)
05.12.2023 16:25 3,3 C 81 % 1008,1 hPa 0,0 l/m 0 min 0 W/m 0,4 C 3,3 C 8,0 km/h (2 Bft)
05.12.2023 15:25 4,1 C 78 % 1007,4 hPa 0,0 l/m 15 min 51 W/m 0,6 C 4,1 C 6,4 km/h (2 Bft)
05.12.2023 14:25 4,5 C 78 % 1006,9 hPa 0,0 l/m 20 min 65 W/m 1,0 C 3,3 C 16,1 km/h (3 Bft)
05.12.2023 13:25 5,3 C 74 % 1007,0 hPa 0,0 l/m 45 min 141 W/m 1,0 C 5,3 C 8,0 km/h (2 Bft)
05.12.2023 12:25 4,6 C 79 % 1007,0 hPa 0,0 l/m 60 min 269 W/m 1,3 C 4,6 C 8,0 km/h (2 Bft)
05.12.2023 11:20 3,4 C 84 % 1007,8 hPa 0,0 l/m 5 min 155 W/m 1,0 C 3,4 C 8,0 km/h (2 Bft)
05.12.2023 10:20 2,9 C 86 % 1008,0 hPa 0,0 l/m 0 min 39 W/m 0,8 C 0,8 C 19,3 km/h (3 Bft)
05.12.2023 09:20 1,8 C 88 % 1007,9 hPa 0,0 l/m 0 min 19 W/m 0,0 C 1,8 C 3,2 km/h (1 Bft)
05.12.2023 08:20 2,5 C 89 % 1007,5 hPa 0,0 l/m 0 min 5 W/m 0,9 C 0,4 C 19,3 km/h (3 Bft)
05.12.2023 07:20 1,6 C 91 % 1007,0 hPa 0,0 l/m 0 min 0 W/m 0,3 C 1,6 C 0,0 km/h (0 Bft)
05.12.2023 06:20 1,7 C 90 % 1006,5 hPa 0,0 l/m 0 min 0 W/m 0,2 C 1,7 C 1,6 km/h (1 Bft)
05.12.2023 05:20 1,4 C 89 % 1006,5 hPa 0,0 l/m 0 min 0 W/m -0,2 C 1,4 C 1,6 km/h (1 Bft)
05.12.2023 04:20 2,3 C 88 % 1006,2 hPa 0,0 l/m 0 min 0 W/m 0,5 C 2,3 C 4,8 km/h (1 Bft)
05.12.2023 03:20 2,3 C 87 % 1006,2 hPa 0,5 l/m 0 min 0 W/m 0,4 C 2,3 C 4,8 km/h (1 Bft)
05.12.2023 02:20 2,5 C 88 % 1005,9 hPa 0,0 l/m 0 min 0 W/m 0,7 C 0,8 C 20,9 km/h (4 Bft)
05.12.2023 01:20 0,4 C 88 % 1006,5 hPa 0,0 l/m 0 min 0 W/m -1,3 C 0,4 C 9,7 km/h (2 Bft)
05.12.2023 00:20 -1,4 C 88 % 1007,2 hPa 0,0 l/m 0 min 0 W/m -3,1 C -1,4 C 6,4 km/h (2 Bft)
05.12.2023 00:00 -2,0 C 87 % 1007,6 hPa 0,0 l/m 0 min 0 W/m -3,9 C -2,0 C 9,7 km/h (2 Bft)
_ Min-Zeit 00:05 13:15 02:35 - - - 00:00 00:05 20:30
Minimum _ -2,0 C 73 % 1005,9 hPa - - - -3,9 C -2,0 C 0,0 km/h (0 Bft)
_ Max-Zeit 13:00 07:55 20:15 03:20 12:10 12:35 12:30 13:00 10:25
Maximum _ 5,8 C 91 % 1009,2 hPa 0,2 l/m 10 min 466 W/m 1,5 C 5,8 C 37,0 km/h
S (5 Bft)
Durchschnitt _ 2,5 C 85 % 1007,3 hPa #0,5 l/m #2:30 h 113 W/m 0,2 C 2,3 C 7,3 km/h (2 Bft)